sensor_id;sensor_type;location;lat;lon;timestamp;temperature;humidity
80695;DHT22;70059;42.702;23.312;2024-03-02T00:00:05;10.30;67.90
80695;DHT22;70059;42.702;23.312;2024-03-02T00:02:43;10.20;68.90
80695;DHT22;70059;42.702;23.312;2024-03-02T00:07:43;10.40;69.10
80695;DHT22;70059;42.702;23.312;2024-03-02T00:10:10;10.40;68.00
80695;DHT22;70059;42.702;23.312;2024-03-02T00:12:42;9.80;69.30
80695;DHT22;70059;42.702;23.312;2024-03-02T00:17:55;9.30;71.80
80695;DHT22;70059;42.702;23.312;2024-03-02T00:20:22;9.30;72.80
80695;DHT22;70059;42.702;23.312;2024-03-02T00:22:51;9.20;73.20
80695;DHT22;70059;42.702;23.312;2024-03-02T00:25:17;9.10;73.50
80695;DHT22;70059;42.702;23.312;2024-03-02T00:27:47;9.10;73.50
80695;DHT22;70059;42.702;23.312;2024-03-02T00:33:06;9.10;74.10
80695;DHT22;70059;42.702;23.312;2024-03-02T00:35:33;9.20;73.60
80695;DHT22;70059;42.702;23.312;2024-03-02T00:38:04;9.30;73.30
80695;DHT22;70059;42.702;23.312;2024-03-02T00:40:30;9.50;72.70
80695;DHT22;70059;42.702;23.312;2024-03-02T00:42:56;9.70;71.90
80695;DHT22;70059;42.702;23.312;2024-03-02T00:45:21;9.90;71.00
80695;DHT22;70059;42.702;23.312;2024-03-02T00:47:47;10.10;70.20
80695;DHT22;70059;42.702;23.312;2024-03-02T00:50:13;10.30;68.80
80695;DHT22;70059;42.702;23.312;2024-03-02T00:52:40;10.50;67.50
80695;DHT22;70059;42.702;23.312;2024-03-02T00:55:13;10.30;68.10
80695;DHT22;70059;42.702;23.312;2024-03-02T00:57:39;10.40;68.00
80695;DHT22;70059;42.702;23.312;2024-03-02T01:00:05;10.50;67.50
80695;DHT22;70059;42.702;23.312;2024-03-02T01:02:35;10.70;66.30
80695;DHT22;70059;42.702;23.312;2024-03-02T01:05:00;10.80;65.80
80695;DHT22;70059;42.702;23.312;2024-03-02T01:07:26;10.80;65.70
80695;DHT22;70059;42.702;23.312;2024-03-02T01:09:52;10.80;66.90
80695;DHT22;70059;42.702;23.312;2024-03-02T01:12:17;10.70;66.00
80695;DHT22;70059;42.702;23.312;2024-03-02T01:14:43;10.50;67.20
80695;DHT22;70059;42.702;23.312;2024-03-02T01:17:15;10.60;67.40
80695;DHT22;70059;42.702;23.312;2024-03-02T01:19:42;10.70;66.70
80695;DHT22;70059;42.702;23.312;2024-03-02T01:22:07;10.90;66.20
80695;DHT22;70059;42.702;23.312;2024-03-02T01:24:33;11.00;65.60
80695;DHT22;70059;42.702;23.312;2024-03-02T01:26:59;11.10;65.00
80695;DHT22;70059;42.702;23.312;2024-03-02T01:29:24;11.20;64.40
80695;DHT22;70059;42.702;23.312;2024-03-02T01:31:57;11.40;63.90
80695;DHT22;70059;42.702;23.312;2024-03-02T01:34:22;11.40;63.70
80695;DHT22;70059;42.702;23.312;2024-03-02T01:36:48;11.50;64.00
80695;DHT22;70059;42.702;23.312;2024-03-02T01:39:14;11.60;63.40
80695;DHT22;70059;42.702;23.312;2024-03-02T01:41:39;11.80;62.70
80695;DHT22;70059;42.702;23.312;2024-03-02T01:44:05;11.80;62.90
80695;DHT22;70059;42.702;23.312;2024-03-02T01:46:31;11.70;63.40
80695;DHT22;70059;42.702;23.312;2024-03-02T01:48:56;11.60;63.90
80695;DHT22;70059;42.702;23.312;2024-03-02T01:51:22;11.60;64.00
80695;DHT22;70059;42.702;23.312;2024-03-02T01:53:48;11.50;64.60
80695;DHT22;70059;42.702;23.312;2024-03-02T01:56:13;11.40;65.20
80695;DHT22;70059;42.702;23.312;2024-03-02T01:58:39;11.40;65.20
80695;DHT22;70059;42.702;23.312;2024-03-02T02:01:04;11.40;65.30
80695;DHT22;70059;42.702;23.312;2024-03-02T02:03:37;11.40;65.40
80695;DHT22;70059;42.702;23.312;2024-03-02T02:06:03;11.30;66.70
80695;DHT22;70059;42.702;23.312;2024-03-02T02:08:29;11.30;66.60
80695;DHT22;70059;42.702;23.312;2024-03-02T02:10:54;11.30;66.20
80695;DHT22;70059;42.702;23.312;2024-03-02T02:13:20;11.30;66.60
80695;DHT22;70059;42.702;23.312;2024-03-02T02:15:46;11.30;66.60
80695;DHT22;70059;42.702;23.312;2024-03-02T02:18:11;11.20;67.10
80695;DHT22;70059;42.702;23.312;2024-03-02T02:20:37;11.30;66.50
80695;DHT22;70059;42.702;23.312;2024-03-02T02:23:03;11.40;65.60
80695;DHT22;70059;42.702;23.312;2024-03-02T02:25:31;11.30;65.50
80695;DHT22;70059;42.702;23.312;2024-03-02T02:27:57;11.30;65.70
80695;DHT22;70059;42.702;23.312;2024-03-02T02:30:29;11.30;65.70
80695;DHT22;70059;42.702;23.312;2024-03-02T02:32:55;11.30;65.40
80695;DHT22;70059;42.702;23.312;2024-03-02T02:35:27;11.20;66.40
80695;DHT22;70059;42.702;23.312;2024-03-02T02:37:54;11.20;66.30
80695;DHT22;70059;42.702;23.312;2024-03-02T02:40:20;11.00;66.40
80695;DHT22;70059;42.702;23.312;2024-03-02T02:42:46;11.10;66.60
80695;DHT22;70059;42.702;23.312;2024-03-02T02:45:18;11.20;66.00
80695;DHT22;70059;42.702;23.312;2024-03-02T02:47:44;11.20;66.00
80695;DHT22;70059;42.702;23.312;2024-03-02T02:50:11;11.10;66.30
80695;DHT22;70059;42.702;23.312;2024-03-02T02:52:38;11.10;66.50
80695;DHT22;70059;42.702;23.312;2024-03-02T02:55:06;11.20;66.30
80695;DHT22;70059;42.702;23.312;2024-03-02T02:57:33;11.40;65.40
80695;DHT22;70059;42.702;23.312;2024-03-02T03:00:12;11.50;65.10
80695;DHT22;70059;42.702;23.312;2024-03-02T03:02:42;11.50;64.50
80695;DHT22;70059;42.702;23.312;2024-03-02T03:05:12;11.60;64.40
80695;DHT22;70059;42.702;23.312;2024-03-02T03:07:42;11.70;64.10
80695;DHT22;70059;42.702;23.312;2024-03-02T03:10:08;11.60;64.30
80695;DHT22;70059;42.702;23.312;2024-03-02T03:12:34;11.60;64.20
80695;DHT22;70059;42.702;23.312;2024-03-02T03:15:01;11.60;63.80
80695;DHT22;70059;42.702;23.312;2024-03-02T03:17:27;11.60;64.00
80695;DHT22;70059;42.702;23.312;2024-03-02T03:19:53;11.60;64.10
80695;DHT22;70059;42.702;23.312;2024-03-02T03:22:19;11.60;64.30
80695;DHT22;70059;42.702;23.312;2024-03-02T03:24:44;11.50;64.90
80695;DHT22;70059;42.702;23.312;2024-03-02T03:27:10;11.50;65.00
80695;DHT22;70059;42.702;23.312;2024-03-02T03:29:39;11.50;65.60
80695;DHT22;70059;42.702;23.312;2024-03-02T03:32:05;11.50;65.60
80695;DHT22;70059;42.702;23.312;2024-03-02T03:34:38;11.40;66.20
80695;DHT22;70059;42.702;23.312;2024-03-02T03:37:04;11.40;66.40
80695;DHT22;70059;42.702;23.312;2024-03-02T03:39:29;11.40;66.00
80695;DHT22;70059;42.702;23.312;2024-03-02T03:41:55;11.60;66.00
80695;DHT22;70059;42.702;23.312;2024-03-02T03:44:21;11.60;65.60
80695;DHT22;70059;42.702;23.312;2024-03-02T03:46:46;11.60;65.20
80695;DHT22;70059;42.702;23.312;2024-03-02T03:49:12;11.70;64.70
80695;DHT22;70059;42.702;23.312;2024-03-02T03:51:38;11.60;64.80
80695;DHT22;70059;42.702;23.312;2024-03-02T03:54:03;11.50;65.20
80695;DHT22;70059;42.702;23.312;2024-03-02T03:56:29;11.50;64.70
80695;DHT22;70059;42.702;23.312;2024-03-02T03:58:54;11.50;64.90
80695;DHT22;70059;42.702;23.312;2024-03-02T04:01:20;11.50;65.50
80695;DHT22;70059;42.702;23.312;2024-03-02T04:03:48;11.40;65.50
80695;DHT22;70059;42.702;23.312;2024-03-02T04:06:13;11.30;66.00
80695;DHT22;70059;42.702;23.312;2024-03-02T04:08:41;11.20;66.70
80695;DHT22;70059;42.702;23.312;2024-03-02T04:11:13;11.20;67.10
80695;DHT22;70059;42.702;23.312;2024-03-02T04:13:39;11.10;66.70
80695;DHT22;70059;42.702;23.312;2024-03-02T04:16:04;11.10;67.10
80695;DHT22;70059;42.702;23.312;2024-03-02T04:18:31;11.30;66.70
80695;DHT22;70059;42.702;23.312;2024-03-02T04:20:57;11.50;66.10
80695;DHT22;70059;42.702;23.312;2024-03-02T04:23:25;11.60;65.40
80695;DHT22;70059;42.702;23.312;2024-03-02T04:25:50;11.60;65.50
80695;DHT22;70059;42.702;23.312;2024-03-02T04:28:16;11.70;64.60
80695;DHT22;70059;42.702;23.312;2024-03-02T04:30:42;11.70;65.40
80695;DHT22;70059;42.702;23.312;2024-03-02T04:33:07;11.50;65.60
80695;DHT22;70059;42.702;23.312;2024-03-02T04:35:38;11.60;65.80
80695;DHT22;70059;42.702;23.312;2024-03-02T04:38:04;11.40;66.20
80695;DHT22;70059;42.702;23.312;2024-03-02T04:40:30;11.40;67.60
80695;DHT22;70059;42.702;23.312;2024-03-02T04:42:55;11.30;67.80
80695;DHT22;70059;42.702;23.312;2024-03-02T04:45:21;11.30;69.40
80695;DHT22;70059;42.702;23.312;2024-03-02T04:47:47;11.40;68.70
80695;DHT22;70059;42.702;23.312;2024-03-02T04:50:12;11.40;68.30
80695;DHT22;70059;42.702;23.312;2024-03-02T04:52:38;11.40;68.50
80695;DHT22;70059;42.702;23.312;2024-03-02T04:55:04;11.40;68.00
80695;DHT22;70059;42.702;23.312;2024-03-02T04:57:48;11.60;68.20
80695;DHT22;70059;42.702;23.312;2024-03-02T05:00:16;11.60;68.20
80695;DHT22;70059;42.702;23.312;2024-03-02T05:02:42;11.60;67.40
80695;DHT22;70059;42.702;23.312;2024-03-02T05:05:08;11.50;68.00
80695;DHT22;70059;42.702;23.312;2024-03-02T05:07:33;11.50;68.30
80695;DHT22;70059;42.702;23.312;2024-03-02T05:09:59;11.50;68.10
80695;DHT22;70059;42.702;23.312;2024-03-02T05:12:25;11.60;68.80
80695;DHT22;70059;42.702;23.312;2024-03-02T05:15:09;11.40;69.70
80695;DHT22;70059;42.702;23.312;2024-03-02T05:17:36;11.40;70.10
80695;DHT22;70059;42.702;23.312;2024-03-02T05:20:06;11.30;70.20
80695;DHT22;70059;42.702;23.312;2024-03-02T05:22:40;11.20;71.00
80695;DHT22;70059;42.702;23.312;2024-03-02T05:25:06;11.10;71.70
80695;DHT22;70059;42.702;23.312;2024-03-02T05:27:32;10.90;72.50
80695;DHT22;70059;42.702;23.312;2024-03-02T05:29:58;10.80;71.90
80695;DHT22;70059;42.702;23.312;2024-03-02T05:32:24;10.80;72.70
80695;DHT22;70059;42.702;23.312;2024-03-02T05:34:50;10.70;73.10
80695;DHT22;70059;42.702;23.312;2024-03-02T05:37:24;10.70;72.80
80695;DHT22;70059;42.702;23.312;2024-03-02T05:39:50;10.90;73.20
80695;DHT22;70059;42.702;23.312;2024-03-02T05:42:15;10.80;72.80
80695;DHT22;70059;42.702;23.312;2024-03-02T05:44:42;10.70;73.60
80695;DHT22;70059;42.702;23.312;2024-03-02T05:47:07;11.00;72.90
80695;DHT22;70059;42.702;23.312;2024-03-02T05:49:36;11.00;72.90
80695;DHT22;70059;42.702;23.312;2024-03-02T05:52:01;11.20;72.50
80695;DHT22;70059;42.702;23.312;2024-03-02T05:54:34;11.30;71.50
80695;DHT22;70059;42.702;23.312;2024-03-02T05:57:00;11.30;70.90
80695;DHT22;70059;42.702;23.312;2024-03-02T05:59:42;11.30;71.60
80695;DHT22;70059;42.702;23.312;2024-03-02T06:02:07;11.30;71.20
80695;DHT22;70059;42.702;23.312;2024-03-02T06:04:33;11.30;71.40
80695;DHT22;70059;42.702;23.312;2024-03-02T06:06:59;11.20;72.80
80695;DHT22;70059;42.702;23.312;2024-03-02T06:09:24;11.30;72.70
80695;DHT22;70059;42.702;23.312;2024-03-02T06:11:50;11.30;71.50
80695;DHT22;70059;42.702;23.312;2024-03-02T06:14:16;11.30;72.30
80695;DHT22;70059;42.702;23.312;2024-03-02T06:16:42;11.20;72.10
80695;DHT22;70059;42.702;23.312;2024-03-02T06:19:07;11.10;73.30
80695;DHT22;70059;42.702;23.312;2024-03-02T06:21:33;11.20;72.60
80695;DHT22;70059;42.702;23.312;2024-03-02T06:23:58;11.10;72.20
80695;DHT22;70059;42.702;23.312;2024-03-02T06:26:24;11.10;72.80
80695;DHT22;70059;42.702;23.312;2024-03-02T06:28:50;11.10;72.60
80695;DHT22;70059;42.702;23.312;2024-03-02T06:31:16;11.00;72.70
80695;DHT22;70059;42.702;23.312;2024-03-02T06:33:41;11.00;73.50
80695;DHT22;70059;42.702;23.312;2024-03-02T06:36:07;11.20;71.40
80695;DHT22;70059;42.702;23.312;2024-03-02T06:38:35;11.20;72.00
80695;DHT22;70059;42.702;23.312;2024-03-02T06:41:00;11.10;71.80
80695;DHT22;70059;42.702;23.312;2024-03-02T06:43:26;11.10;72.40
80695;DHT22;70059;42.702;23.312;2024-03-02T06:45:52;11.10;72.30
80695;DHT22;70059;42.702;23.312;2024-03-02T06:48:18;11.10;71.60
80695;DHT22;70059;42.702;23.312;2024-03-02T06:50:49;11.20;70.40
80695;DHT22;70059;42.702;23.312;2024-03-02T06:53:15;11.20;71.40
80695;DHT22;70059;42.702;23.312;2024-03-02T06:55:45;11.10;71.80
80695;DHT22;70059;42.702;23.312;2024-03-02T06:58:14;11.20;71.40
80695;DHT22;70059;42.702;23.312;2024-03-02T07:00:43;11.30;70.70
80695;DHT22;70059;42.702;23.312;2024-03-02T07:03:09;11.30;70.50
80695;DHT22;70059;42.702;23.312;2024-03-02T07:05:35;11.30;70.60
80695;DHT22;70059;42.702;23.312;2024-03-02T07:08:01;11.20;71.10
80695;DHT22;70059;42.702;23.312;2024-03-02T07:10:28;11.20;71.00
80695;DHT22;70059;42.702;23.312;2024-03-02T07:12:53;11.20;71.70
80695;DHT22;70059;42.702;23.312;2024-03-02T07:15:25;11.20;71.30
80695;DHT22;70059;42.702;23.312;2024-03-02T07:17:54;11.40;71.30
80695;DHT22;70059;42.702;23.312;2024-03-02T07:20:19;11.40;70.40
80695;DHT22;70059;42.702;23.312;2024-03-02T07:22:45;11.50;70.10
80695;DHT22;70059;42.702;23.312;2024-03-02T07:25:11;11.60;69.30
80695;DHT22;70059;42.702;23.312;2024-03-02T07:27:36;11.50;69.70
80695;DHT22;70059;42.702;23.312;2024-03-02T07:30:03;11.60;69.90
80695;DHT22;70059;42.702;23.312;2024-03-02T07:32:29;11.60;69.40
80695;DHT22;70059;42.702;23.312;2024-03-02T07:34:54;11.70;68.90
80695;DHT22;70059;42.702;23.312;2024-03-02T07:37:21;11.80;68.50
80695;DHT22;70059;42.702;23.312;2024-03-02T07:39:47;11.70;68.80
80695;DHT22;70059;42.702;23.312;2024-03-02T07:42:13;11.60;68.80
80695;DHT22;70059;42.702;23.312;2024-03-02T07:44:39;11.60;69.80
80695;DHT22;70059;42.702;23.312;2024-03-02T07:47:04;11.60;69.80
80695;DHT22;70059;42.702;23.312;2024-03-02T07:49:36;11.70;69.90
80695;DHT22;70059;42.702;23.312;2024-03-02T07:52:02;11.60;69.80
80695;DHT22;70059;42.702;23.312;2024-03-02T07:54:28;11.70;69.80
80695;DHT22;70059;42.702;23.312;2024-03-02T07:56:53;11.80;69.20
80695;DHT22;70059;42.702;23.312;2024-03-02T07:59:19;11.90;68.80
80695;DHT22;70059;42.702;23.312;2024-03-02T08:01:46;11.90;67.90
80695;DHT22;70059;42.702;23.312;2024-03-02T08:04:11;11.90;68.50
80695;DHT22;70059;42.702;23.312;2024-03-02T08:06:37;12.00;68.40
80695;DHT22;70059;42.702;23.312;2024-03-02T08:09:03;11.90;68.00
80695;DHT22;70059;42.702;23.312;2024-03-02T08:11:34;11.90;67.90
80695;DHT22;70059;42.702;23.312;2024-03-02T08:14:00;11.60;69.30
80695;DHT22;70059;42.702;23.312;2024-03-02T08:16:26;11.70;69.30
80695;DHT22;70059;42.702;23.312;2024-03-02T08:18:52;11.80;69.10
80695;DHT22;70059;42.702;23.312;2024-03-02T08:21:18;11.90;68.60
80695;DHT22;70059;42.702;23.312;2024-03-02T08:23:44;12.00;68.30
80695;DHT22;70059;42.702;23.312;2024-03-02T08:26:10;11.90;68.40
80695;DHT22;70059;42.702;23.312;2024-03-02T08:28:42;12.00;68.90
80695;DHT22;70059;42.702;23.312;2024-03-02T08:31:08;12.10;68.30
80695;DHT22;70059;42.702;23.312;2024-03-02T08:33:34;12.20;67.80
80695;DHT22;70059;42.702;23.312;2024-03-02T08:36:06;12.40;66.80
80695;DHT22;70059;42.702;23.312;2024-03-02T08:38:35;12.50;66.00
80695;DHT22;70059;42.702;23.312;2024-03-02T08:41:00;11.90;67.80
80695;DHT22;70059;42.702;23.312;2024-03-02T08:43:26;12.00;69.00
80695;DHT22;70059;42.702;23.312;2024-03-02T08:45:52;12.20;68.60
80695;DHT22;70059;42.702;23.312;2024-03-02T08:48:17;12.50;67.30
80695;DHT22;70059;42.702;23.312;2024-03-02T08:50:43;12.70;66.10
80695;DHT22;70059;42.702;23.312;2024-03-02T08:53:09;13.10;64.60
80695;DHT22;70059;42.702;23.312;2024-03-02T08:55:34;13.20;64.50
80695;DHT22;70059;42.702;23.312;2024-03-02T08:58:00;13.50;62.50
80695;DHT22;70059;42.702;23.312;2024-03-02T09:00:26;13.60;61.90
80695;DHT22;70059;42.702;23.312;2024-03-02T09:02:51;13.50;62.00
80695;DHT22;70059;42.702;23.312;2024-03-02T09:05:17;13.50;62.30
80695;DHT22;70059;42.702;23.312;2024-03-02T09:07:43;13.80;61.00
80695;DHT22;70059;42.702;23.312;2024-03-02T09:10:09;14.20;59.40
80695;DHT22;70059;42.702;23.312;2024-03-02T09:12:35;14.40;58.50
80695;DHT22;70059;42.702;23.312;2024-03-02T09:15:02;14.50;58.60
80695;DHT22;70059;42.702;23.312;2024-03-02T09:17:34;14.30;57.90
80695;DHT22;70059;42.702;23.312;2024-03-02T09:19:59;14.40;58.70
80695;DHT22;70059;42.702;23.312;2024-03-02T09:22:25;14.60;56.90
80695;DHT22;70059;42.702;23.312;2024-03-02T09:24:51;14.80;57.50
80695;DHT22;70059;42.702;23.312;2024-03-02T09:27:16;15.00;56.10
80695;DHT22;70059;42.702;23.312;2024-03-02T09:29:42;15.00;57.50
80695;DHT22;70059;42.702;23.312;2024-03-02T09:32:11;15.10;56.00
80695;DHT22;70059;42.702;23.312;2024-03-02T09:34:37;15.10;56.00
80695;DHT22;70059;42.702;23.312;2024-03-02T09:37:03;15.00;56.50
80695;DHT22;70059;42.702;23.312;2024-03-02T09:39:30;15.10;55.30
80695;DHT22;70059;42.702;23.312;2024-03-02T09:41:55;15.00;56.90
80695;DHT22;70059;42.702;23.312;2024-03-02T09:44:21;14.90;57.40
80695;DHT22;70059;42.702;23.312;2024-03-02T09:46:51;14.90;55.90
80695;DHT22;70059;42.702;23.312;2024-03-02T09:49:16;15.00;56.10
80695;DHT22;70059;42.702;23.312;2024-03-02T09:51:49;15.00;55.20
80695;DHT22;70059;42.702;23.312;2024-03-02T09:54:16;14.90;56.10
80695;DHT22;70059;42.702;23.312;2024-03-02T09:56:41;15.00;56.00
80695;DHT22;70059;42.702;23.312;2024-03-02T09:59:07;14.90;55.30
80695;DHT22;70059;42.702;23.312;2024-03-02T10:01:33;14.80;55.10
80695;DHT22;70059;42.702;23.312;2024-03-02T10:04:00;14.60;56.80
80695;DHT22;70059;42.702;23.312;2024-03-02T10:06:26;14.70;57.40
80695;DHT22;70059;42.702;23.312;2024-03-02T10:08:53;14.60;58.30
80695;DHT22;70059;42.702;23.312;2024-03-02T10:11:45;14.60;58.20
80695;DHT22;70059;42.702;23.312;2024-03-02T10:14:12;14.60;58.00
80695;DHT22;70059;42.702;23.312;2024-03-02T10:19:21;14.50;59.20
80695;DHT22;70059;42.702;23.312;2024-03-02T10:24:21;14.70;57.50
80695;DHT22;70059;42.702;23.312;2024-03-02T10:26:48;14.70;57.20
80695;DHT22;70059;42.702;23.312;2024-03-02T10:29:13;14.70;57.10
80695;DHT22;70059;42.702;23.312;2024-03-02T10:31:43;14.50;58.50
80695;DHT22;70059;42.702;23.312;2024-03-02T10:34:10;14.30;59.10
80695;DHT22;70059;42.702;23.312;2024-03-02T10:36:37;14.10;60.00
80695;DHT22;70059;42.702;23.312;2024-03-02T10:39:06;14.20;60.40
80695;DHT22;70059;42.702;23.312;2024-03-02T10:41:36;14.20;60.00
80695;DHT22;70059;42.702;23.312;2024-03-02T10:44:11;14.10;60.20
80695;DHT22;70059;42.702;23.312;2024-03-02T10:46:37;14.20;59.50
80695;DHT22;70059;42.702;23.312;2024-03-02T10:49:05;14.20;59.80
80695;DHT22;70059;42.702;23.312;2024-03-02T10:51:32;14.10;61.00
80695;DHT22;70059;42.702;23.312;2024-03-02T10:54:00;14.00;60.70
80695;DHT22;70059;42.702;23.312;2024-03-02T10:56:31;13.90;60.80
80695;DHT22;70059;42.702;23.312;2024-03-02T10:59:27;13.90;60.90
80695;DHT22;70059;42.702;23.312;2024-03-02T11:01:57;13.90;60.90
80695;DHT22;70059;42.702;23.312;2024-03-02T11:04:25;13.80;62.20
80695;DHT22;70059;42.702;23.312;2024-03-02T11:06:52;13.70;62.80
80695;DHT22;70059;42.702;23.312;2024-03-02T11:09:21;13.90;61.00
80695;DHT22;70059;42.702;23.312;2024-03-02T11:14:30;14.00;61.10
80695;DHT22;70059;42.702;23.312;2024-03-02T11:16:58;13.90;61.70
80695;DHT22;70059;42.702;23.312;2024-03-02T11:19:25;13.80;61.20
80695;DHT22;70059;42.702;23.312;2024-03-02T11:21:51;13.90;60.90
80695;DHT22;70059;42.702;23.312;2024-03-02T11:24:37;13.80;61.70
80695;DHT22;70059;42.702;23.312;2024-03-02T11:27:05;13.80;61.40
80695;DHT22;70059;42.702;23.312;2024-03-02T11:32:12;13.80;62.00
80695;DHT22;70059;42.702;23.312;2024-03-02T11:34:38;13.90;61.40
80695;DHT22;70059;42.702;23.312;2024-03-02T11:37:10;13.90;61.10
80695;DHT22;70059;42.702;23.312;2024-03-02T11:39:38;14.10;59.40
80695;DHT22;70059;42.702;23.312;2024-03-02T11:42:06;14.20;59.90
80695;DHT22;70059;42.702;23.312;2024-03-02T11:44:46;14.20;60.00
80695;DHT22;70059;42.702;23.312;2024-03-02T11:47:16;14.50;59.40
80695;DHT22;70059;42.702;23.312;2024-03-02T11:49:49;14.60;59.10
80695;DHT22;70059;42.702;23.312;2024-03-02T11:52:17;14.50;58.70
80695;DHT22;70059;42.702;23.312;2024-03-02T11:54:45;14.70;58.10
80695;DHT22;70059;42.702;23.312;2024-03-02T11:57:21;14.80;57.70
80695;DHT22;70059;42.702;23.312;2024-03-02T11:59:51;14.70;57.40
80695;DHT22;70059;42.702;23.312;2024-03-02T12:02:19;14.80;57.30
80695;DHT22;70059;42.702;23.312;2024-03-02T12:04:46;14.90;57.00
80695;DHT22;70059;42.702;23.312;2024-03-02T12:07:18;14.90;57.20
80695;DHT22;70059;42.702;23.312;2024-03-02T12:09:45;15.00;57.40
80695;DHT22;70059;42.702;23.312;2024-03-02T12:12:17;14.90;56.90
80695;DHT22;70059;42.702;23.312;2024-03-02T12:14:53;15.00;56.50
80695;DHT22;70059;42.702;23.312;2024-03-02T12:17:21;14.90;56.50
80695;DHT22;70059;42.702;23.312;2024-03-02T12:19:47;15.00;55.90
80695;DHT22;70059;42.702;23.312;2024-03-02T12:22:13;14.90;55.50
80695;DHT22;70059;42.702;23.312;2024-03-02T12:24:39;14.90;56.10
80695;DHT22;70059;42.702;23.312;2024-03-02T12:27:15;14.90;56.40
80695;DHT22;70059;42.702;23.312;2024-03-02T12:29:41;14.90;56.70
80695;DHT22;70059;42.702;23.312;2024-03-02T12:32:07;15.00;56.50
80695;DHT22;70059;42.702;23.312;2024-03-02T12:34:33;15.10;55.20
80695;DHT22;70059;42.702;23.312;2024-03-02T12:36:59;15.20;54.50
80695;DHT22;70059;42.702;23.312;2024-03-02T12:39:24;15.20;55.30
80695;DHT22;70059;42.702;23.312;2024-03-02T12:41:50;15.20;55.10
80695;DHT22;70059;42.702;23.312;2024-03-02T12:44:17;15.10;55.40
80695;DHT22;70059;42.702;23.312;2024-03-02T12:46:43;15.10;55.70
80695;DHT22;70059;42.702;23.312;2024-03-02T12:49:11;14.90;56.40
80695;DHT22;70059;42.702;23.312;2024-03-02T12:51:41;15.00;56.50
80695;DHT22;70059;42.702;23.312;2024-03-02T12:54:10;15.00;55.80
80695;DHT22;70059;42.702;23.312;2024-03-02T12:56:37;15.00;56.30
80695;DHT22;70059;42.702;23.312;2024-03-02T12:59:06;15.10;55.50
80695;DHT22;70059;42.702;23.312;2024-03-02T13:01:31;15.10;55.50
80695;DHT22;70059;42.702;23.312;2024-03-02T13:03:58;15.00;55.90
80695;DHT22;70059;42.702;23.312;2024-03-02T13:06:33;15.00;55.50
80695;DHT22;70059;42.702;23.312;2024-03-02T13:08:58;15.00;55.90
80695;DHT22;70059;42.702;23.312;2024-03-02T13:11:24;14.80;56.40
80695;DHT22;70059;42.702;23.312;2024-03-02T13:13:50;14.90;55.80
80695;DHT22;70059;42.702;23.312;2024-03-02T13:16:17;14.80;55.90
80695;DHT22;70059;42.702;23.312;2024-03-02T13:18:45;14.70;56.30
80695;DHT22;70059;42.702;23.312;2024-03-02T13:21:10;14.70;56.00
80695;DHT22;70059;42.702;23.312;2024-03-02T13:23:42;14.60;55.90
80695;DHT22;70059;42.702;23.312;2024-03-02T13:26:08;14.40;57.00
80695;DHT22;70059;42.702;23.312;2024-03-02T13:28:36;14.30;57.00
80695;DHT22;70059;42.702;23.312;2024-03-02T13:31:01;14.10;58.20
80695;DHT22;70059;42.702;23.312;2024-03-02T13:33:27;14.00;58.40
80695;DHT22;70059;42.702;23.312;2024-03-02T13:35:52;13.80;59.00
80695;DHT22;70059;42.702;23.312;2024-03-02T13:38:22;13.80;59.90
80695;DHT22;70059;42.702;23.312;2024-03-02T13:40:49;13.80;59.20
80695;DHT22;70059;42.702;23.312;2024-03-02T13:43:18;13.90;59.00
80695;DHT22;70059;42.702;23.312;2024-03-02T13:45:46;13.90;59.00
80695;DHT22;70059;42.702;23.312;2024-03-02T13:48:13;13.70;59.40
80695;DHT22;70059;42.702;23.312;2024-03-02T13:50:40;13.70;59.90
80695;DHT22;70059;42.702;23.312;2024-03-02T13:53:06;13.90;58.50
80695;DHT22;70059;42.702;23.312;2024-03-02T13:55:32;14.00;58.20
80695;DHT22;70059;42.702;23.312;2024-03-02T13:57:58;13.90;59.40
80695;DHT22;70059;42.702;23.312;2024-03-02T14:00:24;13.90;59.80
80695;DHT22;70059;42.702;23.312;2024-03-02T14:02:50;13.70;59.50
80695;DHT22;70059;42.702;23.312;2024-03-02T14:05:16;13.60;60.30
80695;DHT22;70059;42.702;23.312;2024-03-02T14:07:42;13.60;60.30
80695;DHT22;70059;42.702;23.312;2024-03-02T14:10:08;13.50;60.70
80695;DHT22;70059;42.702;23.312;2024-03-02T14:12:34;13.60;60.00
80695;DHT22;70059;42.702;23.312;2024-03-02T14:15:07;13.80;59.00
80695;DHT22;70059;42.702;23.312;2024-03-02T14:17:32;14.00;58.20
80695;DHT22;70059;42.702;23.312;2024-03-02T14:19:59;13.90;58.20
80695;DHT22;70059;42.702;23.312;2024-03-02T14:22:32;13.80;58.90
80695;DHT22;70059;42.702;23.312;2024-03-02T14:24:59;13.80;59.00
80695;DHT22;70059;42.702;23.312;2024-03-02T14:27:25;13.80;58.90
80695;DHT22;70059;42.702;23.312;2024-03-02T14:29:51;13.80;58.70
80695;DHT22;70059;42.702;23.312;2024-03-02T14:32:16;13.80;58.60
80695;DHT22;70059;42.702;23.312;2024-03-02T14:34:42;13.80;59.10
80695;DHT22;70059;42.702;23.312;2024-03-02T14:37:08;13.90;59.30
80695;DHT22;70059;42.702;23.312;2024-03-02T14:39:33;13.80;60.00
80695;DHT22;70059;42.702;23.312;2024-03-02T14:42:01;14.00;58.40
80695;DHT22;70059;42.702;23.312;2024-03-02T14:44:27;14.20;57.80
80695;DHT22;70059;42.702;23.312;2024-03-02T14:46:52;14.30;57.80
80695;DHT22;70059;42.702;23.312;2024-03-02T14:49:18;14.40;58.10
80695;DHT22;70059;42.702;23.312;2024-03-02T14:51:44;14.50;57.00
80695;DHT22;70059;42.702;23.312;2024-03-02T14:54:10;14.60;55.90
80695;DHT22;70059;42.702;23.312;2024-03-02T14:56:35;14.70;55.60
80695;DHT22;70059;42.702;23.312;2024-03-02T14:59:01;14.70;55.30
80695;DHT22;70059;42.702;23.312;2024-03-02T15:01:27;14.80;55.40
80695;DHT22;70059;42.702;23.312;2024-03-02T15:03:59;14.60;56.30
80695;DHT22;70059;42.702;23.312;2024-03-02T15:06:25;14.30;56.90
80695;DHT22;70059;42.702;23.312;2024-03-02T15:08:51;14.10;57.70
80695;DHT22;70059;42.702;23.312;2024-03-02T15:11:16;13.70;58.30
80695;DHT22;70059;42.702;23.312;2024-03-02T15:13:42;13.20;59.40
80695;DHT22;70059;42.702;23.312;2024-03-02T15:16:08;13.20;60.40
80695;DHT22;70059;42.702;23.312;2024-03-02T15:18:33;13.10;60.50
80695;DHT22;70059;42.702;23.312;2024-03-02T15:21:00;13.10;60.50
80695;DHT22;70059;42.702;23.312;2024-03-02T15:23:25;13.20;60.50
80695;DHT22;70059;42.702;23.312;2024-03-02T15:25:51;13.30;60.60
80695;DHT22;70059;42.702;23.312;2024-03-02T15:28:23;13.30;60.50
80695;DHT22;70059;42.702;23.312;2024-03-02T15:30:49;13.30;60.70
80695;DHT22;70059;42.702;23.312;2024-03-02T15:33:15;13.20;60.60
80695;DHT22;70059;42.702;23.312;2024-03-02T15:35:43;13.20;60.50